createdAt,value
2023-02-22T00:04:35.642Z,96961.97
2023-02-22T00:09:30.348Z,96959.50
2023-02-22T00:14:26.470Z,96966.81
2023-02-22T00:19:20.330Z,96967.16
2023-02-22T00:24:23.942Z,96970.22
2023-02-22T00:29:17.612Z,96953.47
2023-02-22T00:34:10.990Z,96949.00
2023-02-22T00:39:04.446Z,96954.94
2023-02-22T00:43:59.116Z,96957.06
2023-02-22T00:48:52.455Z,96959.66
2023-02-22T00:53:45.799Z,96953.91
2023-02-22T00:58:39.138Z,96952.09
2023-02-22T01:03:35.315Z,96952.38
2023-02-22T01:08:31.201Z,96943.84
2023-02-22T01:13:24.614Z,96937.31
2023-02-22T01:18:18.262Z,96947.47
2023-02-22T01:23:13.861Z,96938.03
2023-02-22T01:28:09.087Z,96934.94
2023-02-22T01:33:04.458Z,96930.25
2023-02-22T01:37:58.875Z,96935.84
2023-02-22T01:42:58.573Z,96938.97
2023-02-22T01:47:51.975Z,96923.97
2023-02-22T01:52:45.387Z,96924.59
2023-02-22T01:57:40.190Z,96924.38
2023-02-22T02:02:34.929Z,96923.69
2023-02-22T02:07:29.679Z,96921.78
2023-02-22T02:12:24.763Z,96914.00
2023-02-22T02:17:23.251Z,96910.19
2023-02-22T02:22:41.224Z,96903.38
2023-02-22T02:28:03.322Z,96902.53
2023-02-22T02:33:06.538Z,96887.84
2023-02-22T02:38:10.527Z,96892.75
2023-02-22T02:43:25.049Z,96882.59
2023-02-22T02:48:24.519Z,96879.31
2023-02-22T02:53:24.083Z,96878.41
2023-02-22T02:58:21.487Z,96886.97
2023-02-22T03:04:12.094Z,96883.53
2023-02-22T03:09:20.476Z,96876.88
2023-02-22T03:14:24.244Z,96872.44
2023-02-22T03:19:28.799Z,96869.13
2023-02-22T03:24:31.257Z,96863.59
2023-02-22T03:29:29.599Z,96853.69
2023-02-22T03:34:30.451Z,96863.28
2023-02-22T03:39:31.064Z,96863.56
2023-02-22T03:44:30.465Z,96860.06
2023-02-22T03:49:36.106Z,96861.75
2023-02-22T03:54:30.759Z,96861.31
2023-02-22T03:59:27.488Z,96865.97
2023-02-22T04:04:21.424Z,96863.06
2023-02-22T04:09:17.196Z,96863.41
2023-02-22T04:14:10.723Z,96864.34
2023-02-22T04:19:04.108Z,96861.31
2023-02-22T04:23:57.378Z,96864.03
2023-02-22T04:28:52.239Z,96875.03
2023-02-22T04:33:45.681Z,96864.22
2023-02-22T04:38:39.162Z,96869.38
2023-02-22T04:43:32.478Z,96864.34
2023-02-22T04:48:27.283Z,96861.78
2023-02-22T04:53:20.537Z,96866.50
2023-02-22T04:58:13.862Z,96862.59
2023-02-22T05:03:07.176Z,96849.75
2023-02-22T05:08:02.125Z,96855.19
2023-02-22T05:12:55.397Z,96859.63
2023-02-22T05:17:49.079Z,96861.34
2023-02-22T05:22:42.375Z,96862.69
2023-02-22T05:27:37.107Z,96854.47
2023-02-22T05:32:30.457Z,96856.13
2023-02-22T05:37:23.779Z,96852.41
2023-02-22T05:42:17.030Z,96844.28
2023-02-22T05:47:11.675Z,96847.88
2023-02-22T05:52:05.219Z,96847.09
2023-02-22T05:56:58.467Z,96846.69
2023-02-22T06:01:51.748Z,96850.41
2023-02-22T06:06:46.342Z,96840.50
2023-02-22T06:11:39.614Z,96831.16
2023-02-22T06:16:32.990Z,96841.44
2023-02-22T06:21:26.973Z,96842.06
2023-02-22T06:26:22.931Z,96848.91
2023-02-22T06:31:16.643Z,96852.72
2023-02-22T06:36:11.520Z,96855.47
2023-02-22T06:41:04.872Z,96856.59
2023-02-22T06:45:59.628Z,96865.97
2023-02-22T06:50:52.944Z,96871.56
2023-02-22T06:55:46.258Z,96864.97
2023-02-22T07:00:39.576Z,96864.50
2023-02-22T07:05:34.387Z,96858.53
2023-02-22T07:10:33.459Z,96859.28
2023-02-22T07:15:30.053Z,96857.41
2023-02-22T07:20:25.539Z,96864.75
2023-02-22T07:25:21.181Z,96869.19
2023-02-22T07:30:21.174Z,96858.13
2023-02-22T07:35:19.713Z,96859.84
2023-02-22T07:40:13.942Z,96861.59
2023-02-22T07:45:09.445Z,96853.00
2023-02-22T07:50:02.758Z,96852.78
2023-02-22T07:54:56.080Z,96853.41
2023-02-22T07:59:49.380Z,96857.66
2023-02-22T08:04:44.034Z,96844.22
2023-02-22T08:09:37.339Z,96844.22
2023-02-22T08:14:30.609Z,96832.66
2023-02-22T08:19:23.946Z,96835.50
2023-02-22T08:24:18.691Z,96835.72
2023-02-22T08:29:11.947Z,96819.63
2023-02-22T08:34:05.329Z,96821.84
2023-02-22T08:38:58.680Z,96824.91
2023-02-22T08:43:53.597Z,96825.69
2023-02-22T08:48:52.892Z,96821.66
2023-02-22T08:53:46.339Z,96818.03
2023-02-22T08:58:39.661Z,96814.81
2023-02-22T09:03:34.420Z,96814.81
2023-02-22T09:08:27.757Z,96814.41
2023-02-22T09:13:21.177Z,96813.47
2023-02-22T09:18:18.088Z,96804.25
2023-02-22T09:23:14.513Z,96809.88
2023-02-22T09:28:08.274Z,96817.66
2023-02-22T09:33:05.923Z,96816.28
2023-02-22T09:38:01.458Z,96812.47
2023-02-22T09:43:15.166Z,96809.88
2023-02-22T09:48:21.120Z,96819.91
2023-02-22T09:53:30.463Z,96813.69
2023-02-22T09:58:33.487Z,96822.63
2023-02-22T10:03:35.483Z,96813.13
2023-02-22T10:08:34.395Z,96815.47
2023-02-22T10:13:44.947Z,96812.56
2023-02-22T10:19:22.561Z,96821.50
2023-02-22T10:24:39.706Z,96810.34
2023-02-22T10:29:41.842Z,96812.13
2023-02-22T10:34:44.086Z,96806.78
2023-02-22T10:39:41.755Z,96808.38
2023-02-22T10:44:38.093Z,96807.25
2023-02-22T10:49:39.518Z,96800.09
2023-02-22T10:54:41.085Z,96800.25
2023-02-22T10:59:39.549Z,96800.97
2023-02-22T11:04:49.583Z,96792.53
2023-02-22T11:09:53.259Z,96779.09
2023-02-22T11:14:48.228Z,96771.41
2023-02-22T11:19:49.707Z,96774.53
2023-02-22T11:24:51.739Z,96768.69
2023-02-22T11:29:50.932Z,96755.72
2023-02-22T11:34:45.624Z,96739.88
2023-02-22T11:39:39.071Z,96733.69
2023-02-22T11:44:34.237Z,96725.47
2023-02-22T11:49:38.548Z,96722.03
2023-02-22T11:55:02.472Z,96718.78
2023-02-22T12:00:16.706Z,96709.38
2023-02-22T12:05:26.431Z,96706.66
2023-02-22T12:10:47.100Z,96702.97
2023-02-22T12:15:54.058Z,96698.13
2023-02-22T12:20:53.526Z,96695.06
2023-02-22T12:26:00.179Z,96700.69
2023-02-22T12:31:02.465Z,96690.72
2023-02-22T12:36:00.555Z,96692.94
2023-02-22T12:41:04.601Z,96688.84
2023-02-22T12:46:07.828Z,96684.13
2023-02-22T12:51:16.429Z,96675.84
2023-02-22T12:56:26.733Z,96679.78
2023-02-22T13:01:25.692Z,96662.56
2023-02-22T13:06:52.275Z,96668.44
2023-02-22T13:12:00.876Z,96660.19
2023-02-22T13:17:02.917Z,96661.84
2023-02-22T13:22:05.470Z,96660.63
2023-02-22T13:27:07.731Z,96654.66
2023-02-22T13:32:23.487Z,96646.97
2023-02-22T13:37:46.002Z,96651.28
2023-02-22T13:43:07.528Z,96643.59
2023-02-22T13:48:21.222Z,96633.63
2023-02-22T13:53:22.580Z,96645.81
2023-02-22T13:58:17.645Z,96630.50
2023-02-22T14:03:41.884Z,96630.66
2023-02-22T14:08:43.642Z,96618.09
2023-02-22T14:14:17.741Z,96612.13
2023-02-22T14:19:20.483Z,96617.31
2023-02-22T14:24:18.890Z,96606.28
2023-02-22T14:29:21.751Z,96615.66
2023-02-22T14:34:17.477Z,96612.94
2023-02-22T14:39:19.601Z,96602.34
2023-02-22T14:44:14.746Z,96605.13
2023-02-22T14:49:19.010Z,96595.47
2023-02-22T14:54:26.015Z,96589.63
2023-02-22T14:59:24.156Z,96603.25
2023-02-22T15:04:25.726Z,96601.03
2023-02-22T15:09:27.680Z,96600.31
2023-02-22T15:14:26.683Z,96603.09
2023-02-22T15:19:28.075Z,96593.66
2023-02-22T15:24:26.676Z,96606.25
2023-02-22T15:29:24.793Z,96603.91
2023-02-22T15:34:27.089Z,96600.16
2023-02-22T15:39:25.659Z,96605.22
2023-02-22T15:44:23.718Z,96619.19
2023-02-22T15:49:24.824Z,96619.59
2023-02-22T15:54:27.182Z,96618.88
2023-02-22T15:59:22.673Z,96618.44
2023-02-22T16:04:20.456Z,96635.03
2023-02-22T16:09:18.817Z,96631.84
2023-02-22T16:14:29.610Z,96634.16
2023-02-22T16:19:39.651Z,96635.13
2023-02-22T16:24:37.564Z,96635.75
2023-02-22T16:29:31.226Z,96647.84
2023-02-22T16:34:24.580Z,96650.00
2023-02-22T16:39:27.232Z,96650.69
2023-02-22T16:44:23.156Z,96654.00
2023-02-22T16:49:16.502Z,96656.09
2023-02-22T16:54:15.158Z,96672.84
2023-02-22T16:59:14.074Z,96672.41
2023-02-22T17:04:17.881Z,96681.59
2023-02-22T17:09:11.498Z,96682.34
2023-02-22T17:14:05.502Z,96684.63
2023-02-22T17:18:58.902Z,96692.69
2023-02-22T17:23:53.664Z,96694.94
2023-02-22T17:28:47.201Z,96691.94
2023-02-22T17:33:40.686Z,96701.38
2023-02-22T17:38:34.796Z,96709.97
2023-02-22T17:43:30.166Z,96712.16
2023-02-22T17:48:24.571Z,96709.06
2023-02-22T17:53:21.881Z,96716.16
2023-02-22T17:58:15.455Z,96717.84
2023-02-22T18:03:15.711Z,96723.16
2023-02-22T18:08:09.561Z,96719.72
2023-02-22T18:13:04.114Z,96726.06
2023-02-22T18:17:58.294Z,96725.78
2023-02-22T18:22:52.911Z,96721.38
2023-02-22T18:27:46.214Z,96724.94
2023-02-22T18:32:39.609Z,96719.06
2023-02-22T18:37:33.266Z,96723.59
2023-02-22T18:42:29.549Z,96720.63
2023-02-22T18:47:23.548Z,96718.34
2023-02-22T18:52:16.921Z,96720.47
2023-02-22T18:57:12.684Z,96716.28
2023-02-22T19:02:08.649Z,96721.03
2023-02-22T19:07:02.021Z,96718.91
2023-02-22T19:11:55.396Z,96713.66
2023-02-22T19:16:51.658Z,96716.75
2023-02-22T19:21:46.358Z,96716.50
2023-02-22T19:26:39.992Z,96720.41
2023-02-22T19:31:34.663Z,96718.13
2023-02-22T19:36:28.645Z,96718.47
2023-02-22T19:41:24.514Z,96714.28
2023-02-22T19:46:18.910Z,96719.38
2023-02-22T19:51:15.157Z,96719.91
2023-02-22T19:58:20.903Z,96720.69
2023-02-22T20:01:33.275Z,96718.81
2023-02-22T20:06:35.923Z,96727.69
2023-02-22T20:11:29.924Z,96725.91
2023-02-22T20:16:23.374Z,96727.59
2023-02-22T20:21:22.957Z,96727.59
2023-02-22T20:26:19.746Z,96724.25
2023-02-22T20:31:17.182Z,96731.25
2023-02-22T20:36:13.464Z,96729.69
2023-02-22T20:41:09.524Z,96734.31
2023-02-22T20:46:03.829Z,96730.97
2023-02-22T20:50:57.429Z,96734.03
2023-02-22T20:55:53.651Z,96745.63
2023-02-22T21:00:48.479Z,96736.56
2023-02-22T21:05:44.705Z,96735.03
2023-02-22T21:10:43.148Z,96734.41
2023-02-22T21:15:43.478Z,96733.31
2023-02-22T21:20:40.831Z,96728.94
2023-02-22T21:25:34.172Z,96730.50
2023-02-22T21:30:28.325Z,96727.78
2023-02-22T21:35:22.625Z,96719.94
2023-02-22T21:40:20.206Z,96732.28
2023-02-22T21:45:13.709Z,96732.50
2023-02-22T21:50:10.344Z,96727.28
2023-02-22T21:55:04.043Z,96727.06
2023-02-22T21:59:58.749Z,96722.16
2023-02-22T22:04:52.099Z,96721.31
2023-02-22T22:09:45.498Z,96716.09
2023-02-22T22:14:40.303Z,96711.72
2023-02-22T22:19:40.390Z,96710.88
2023-02-22T22:24:34.980Z,96714.19
2023-02-22T22:29:28.667Z,96714.13
2023-02-22T22:34:24.308Z,96711.81
2023-02-22T22:39:21.134Z,96703.88
2023-02-22T22:44:16.384Z,96709.22
2023-02-22T22:49:11.877Z,96706.47
2023-02-22T22:54:07.050Z,96698.03
2023-02-22T22:59:12.026Z,96701.47
2023-02-22T23:04:08.569Z,96699.72
2023-02-22T23:09:11.754Z,96698.84
2023-02-22T23:14:07.099Z,96698.31
2023-02-22T23:19:00.609Z,96697.50
2023-02-22T23:23:58.613Z,96692.34
2023-02-22T23:28:52.523Z,96690.47
2023-02-22T23:33:49.273Z,96694.88
2023-02-22T23:38:43.493Z,96688.56
2023-02-22T23:43:40.358Z,96682.31
2023-02-22T23:48:35.832Z,96686.16
2023-02-22T23:53:30.492Z,96682.50
2023-02-22T23:58:26.872Z,96680.25
